Hebron, Nebraska
Current Conditions -  °F | °C
As of 2:15 AM on Sunday 26 Oct 2014 (Local Time) from KHJH Reporting Station
Clear Clear  
Wind Chill: 57°   Ceiling: Unl
Heat Index: 57°   Visibility: 10mi
Dew Point: 46°   Wind: 7mph
Humidity: 67%   Direction: 110°ESE
Pressure: 29.9"   Gusts: NA
Location:  40.17°N, 97.59°W
Report Text: KHJH 260715Z AUTO 11006KT 10SM CLR 14/08 A2990 RMK AO2 T01400080
Loading
Personal Weather Stations






























Interactive Weather Map
Tropical Storm Tracking
New forecast layout! Learn more

10-Day Weather Forecast

Advertisements
Track Severe Weather on mobile